createdAt,value
2022-10-05T00:02:21.418Z,100.00
2022-10-05T00:04:57.312Z,100.00
2022-10-05T00:07:24.701Z,99.72
2022-10-05T00:09:57.208Z,99.93
2022-10-05T00:12:25.431Z,99.17
2022-10-05T00:14:56.782Z,99.51
2022-10-05T00:17:25.671Z,99.27
2022-10-05T00:19:54.135Z,99.80
2022-10-05T00:22:32.029Z,99.22
2022-10-05T00:25:01.803Z,100.00
2022-10-05T00:27:36.720Z,100.00
2022-10-05T00:30:22.551Z,100.00
2022-10-05T00:32:49.586Z,100.00
2022-10-05T00:35:18.299Z,100.00
2022-10-05T00:37:47.193Z,100.00
2022-10-05T00:40:39.712Z,100.00
2022-10-05T00:43:30.661Z,100.00
2022-10-05T00:46:08.746Z,100.00
2022-10-05T00:48:54.246Z,99.62
2022-10-05T00:51:35.827Z,99.11
2022-10-05T00:54:18.489Z,99.52
2022-10-05T00:56:51.396Z,99.69
2022-10-05T00:59:24.106Z,100.00
2022-10-05T01:02:02.698Z,100.00
2022-10-05T01:04:49.332Z,100.00
2022-10-05T01:07:23.455Z,100.00
2022-10-05T01:10:05.542Z,100.00
2022-10-05T01:13:07.631Z,100.00
2022-10-05T01:15:47.255Z,99.99
2022-10-05T01:18:53.794Z,100.00
2022-10-05T01:21:27.010Z,100.00
2022-10-05T01:24:19.730Z,100.00
2022-10-05T01:27:37.020Z,100.00
2022-10-05T01:30:09.928Z,100.00
2022-10-05T01:32:58.428Z,100.00
2022-10-05T01:36:14.394Z,100.00
2022-10-05T01:38:49.046Z,100.00
2022-10-05T01:41:30.477Z,100.00
2022-10-05T01:44:13.255Z,100.00
2022-10-05T01:47:06.767Z,100.00
2022-10-05T01:49:38.751Z,100.00
2022-10-05T01:52:12.907Z,100.00
2022-10-05T01:55:01.533Z,100.00
2022-10-05T01:57:47.720Z,100.00
2022-10-05T02:00:18.866Z,100.00
2022-10-05T02:02:50.595Z,100.00
2022-10-05T02:05:24.458Z,100.00
2022-10-05T02:07:57.299Z,100.00
2022-10-05T02:10:30.702Z,100.00
2022-10-05T02:13:09.955Z,100.00
2022-10-05T02:15:55.103Z,100.00
2022-10-05T02:18:27.239Z,100.00
2022-10-05T02:20:58.403Z,100.00
2022-10-05T02:23:29.477Z,100.00
2022-10-05T02:25:57.093Z,100.00
2022-10-05T02:28:33.883Z,100.00
2022-10-05T02:31:18.293Z,100.00
2022-10-05T02:33:47.761Z,100.00
2022-10-05T02:36:23.849Z,100.00
2022-10-05T02:39:09.262Z,100.00
2022-10-05T02:42:01.219Z,100.00
2022-10-05T02:44:59.048Z,100.00
2022-10-05T02:47:58.419Z,100.00
2022-10-05T02:50:37.935Z,100.00
2022-10-05T02:53:07.419Z,100.00
2022-10-05T02:55:43.032Z,100.00
2022-10-05T02:58:24.933Z,100.00
2022-10-05T03:01:03.239Z,99.45
2022-10-05T03:03:53.570Z,99.68
2022-10-05T03:06:29.216Z,99.99
2022-10-05T03:09:06.000Z,99.76
2022-10-05T03:12:03.651Z,100.00
2022-10-05T03:14:59.355Z,99.71
2022-10-05T03:17:35.005Z,99.87
2022-10-05T03:20:27.189Z,99.91
2022-10-05T03:22:59.368Z,100.00
2022-10-05T03:25:50.963Z,99.68
2022-10-05T03:28:25.848Z,100.00
2022-10-05T03:31:28.166Z,100.00
2022-10-05T03:34:21.477Z,98.76
2022-10-05T03:37:00.920Z,98.73
2022-10-05T03:39:31.163Z,99.11
2022-10-05T03:42:22.427Z,99.70
2022-10-05T03:45:07.500Z,99.46
2022-10-05T03:47:45.676Z,100.00
2022-10-05T03:50:33.541Z,100.00
2022-10-05T03:53:05.775Z,100.00
2022-10-05T03:55:44.175Z,100.00
2022-10-05T03:58:18.723Z,99.76
2022-10-05T04:00:51.829Z,99.87
2022-10-05T04:03:47.590Z,99.17
2022-10-05T04:06:26.469Z,99.36
2022-10-05T04:09:00.402Z,99.92
2022-10-05T04:11:52.832Z,99.58
2022-10-05T04:14:28.574Z,99.66
2022-10-05T04:17:03.072Z,100.00
2022-10-05T04:19:45.744Z,99.97
2022-10-05T04:22:21.696Z,100.00
2022-10-05T04:25:16.478Z,100.00
2022-10-05T04:27:52.950Z,100.00
2022-10-05T04:30:22.275Z,100.00
2022-10-05T04:32:52.127Z,100.00
2022-10-05T04:35:42.380Z,100.00
2022-10-05T04:38:16.166Z,100.00
2022-10-05T04:41:05.434Z,100.00
2022-10-05T04:43:32.312Z,100.00
2022-10-05T04:46:08.314Z,100.00
2022-10-05T04:48:44.657Z,99.99
2022-10-05T04:51:51.386Z,100.00
2022-10-05T04:54:53.001Z,100.00
2022-10-05T04:57:25.586Z,100.00
2022-10-05T05:00:05.929Z,100.00
2022-10-05T05:02:56.436Z,100.00
2022-10-05T05:06:15.969Z,100.00
2022-10-05T05:09:00.692Z,99.07
2022-10-05T05:11:39.488Z,98.24
2022-10-05T05:14:42.643Z,98.43
2022-10-05T05:17:40.884Z,97.39
2022-10-05T05:20:19.799Z,96.37
2022-10-05T05:23:11.641Z,96.53
2022-10-05T05:25:57.373Z,96.21
2022-10-05T05:28:33.887Z,96.21
2022-10-05T05:31:12.103Z,97.00
2022-10-05T05:33:42.601Z,97.90
2022-10-05T05:36:10.209Z,97.32
2022-10-05T05:39:10.823Z,93.06
2022-10-05T05:41:42.344Z,90.62
2022-10-05T05:44:30.032Z,88.08
2022-10-05T05:47:24.127Z,87.43
2022-10-05T05:50:10.385Z,86.93
2022-10-05T05:52:50.538Z,85.83
2022-10-05T05:55:30.406Z,85.52
2022-10-05T05:58:05.972Z,84.62
2022-10-05T06:00:41.920Z,84.85
2022-10-05T06:03:24.644Z,83.88
2022-10-05T06:05:54.513Z,82.72
2022-10-05T06:08:41.708Z,81.69
2022-10-05T06:11:37.902Z,81.50
2022-10-05T06:14:23.964Z,79.30
2022-10-05T06:16:58.036Z,80.52
2022-10-05T06:19:28.105Z,80.27
2022-10-05T06:22:16.191Z,79.95
2022-10-05T06:24:52.183Z,81.06
2022-10-05T06:27:26.893Z,78.64
2022-10-05T06:30:21.621Z,80.64
2022-10-05T06:32:51.098Z,79.00
2022-10-05T06:35:52.580Z,79.36
2022-10-05T06:38:44.825Z,79.19
2022-10-05T06:41:17.381Z,80.10
2022-10-05T06:43:44.661Z,76.81
2022-10-05T06:46:36.457Z,77.83
2022-10-05T06:49:51.100Z,76.90
2022-10-05T06:53:08.687Z,74.95
2022-10-05T06:55:38.634Z,73.65
2022-10-05T06:58:26.525Z,77.00
2022-10-05T07:00:57.408Z,75.21
2022-10-05T07:03:35.176Z,75.63
2022-10-05T07:06:11.904Z,75.08
2022-10-05T07:09:00.219Z,73.59
2022-10-05T07:11:34.106Z,73.14
2022-10-05T07:14:00.728Z,72.04
2022-10-05T07:16:42.891Z,73.55
2022-10-05T07:19:22.203Z,69.54
2022-10-05T07:22:09.187Z,68.64
2022-10-05T07:38:52.988Z,65.54
2022-10-05T07:41:30.156Z,67.82
2022-10-05T07:44:31.269Z,63.74
2022-10-05T07:47:05.788Z,62.98
2022-10-05T07:49:54.487Z,61.43
2022-10-05T07:52:34.986Z,63.12
2022-10-05T07:55:21.857Z,62.46
2022-10-05T07:58:00.910Z,62.73
2022-10-05T08:00:51.820Z,63.15
2022-10-05T08:03:45.449Z,63.65
2022-10-05T08:06:35.892Z,62.91
2022-10-05T08:09:23.229Z,62.96
2022-10-05T08:12:13.575Z,61.98
2022-10-05T08:14:57.543Z,61.46
2022-10-05T08:17:46.082Z,60.12
2022-10-05T08:20:28.007Z,60.14
2022-10-05T08:23:01.091Z,59.05
2022-10-05T08:25:43.219Z,57.53
2022-10-05T08:28:22.054Z,58.08
2022-10-05T08:30:56.210Z,56.14
2022-10-05T08:33:25.342Z,54.83
2022-10-05T08:36:08.279Z,54.69
2022-10-05T08:38:35.281Z,54.82
2022-10-05T08:41:39.087Z,55.61
2022-10-05T08:44:35.761Z,54.31
2022-10-05T08:47:20.774Z,52.90
2022-10-05T08:50:02.435Z,50.42
2022-10-05T08:52:29.303Z,50.51
2022-10-05T08:55:20.467Z,50.89
2022-10-05T08:58:16.181Z,51.55
2022-10-05T09:00:52.006Z,53.45
2022-10-05T09:03:42.725Z,54.15
2022-10-05T09:06:40.949Z,55.44
2022-10-05T09:10:02.198Z,56.86
2022-10-05T09:13:11.151Z,53.37
2022-10-05T09:15:47.012Z,51.87
2022-10-05T09:18:35.497Z,50.49
2022-10-05T09:21:05.697Z,50.91
2022-10-05T09:23:46.409Z,49.96
2022-10-05T09:26:41.062Z,49.60
2022-10-05T09:30:01.723Z,49.42
2022-10-05T09:33:06.018Z,50.14
2022-10-05T09:36:00.456Z,49.87
2022-10-05T09:38:40.963Z,50.13
2022-10-05T09:41:22.974Z,51.16
2022-10-05T09:44:20.367Z,51.77
2022-10-05T09:47:11.992Z,50.93
2022-10-05T09:49:50.723Z,49.76
2022-10-05T09:52:54.933Z,47.48
2022-10-05T09:55:33.975Z,46.83
2022-10-05T09:58:45.748Z,45.77
2022-10-05T10:01:32.653Z,46.49
2022-10-05T10:04:30.502Z,46.29
2022-10-05T10:07:45.677Z,48.04
2022-10-05T10:10:18.205Z,44.70
2022-10-05T10:12:44.787Z,43.40
2022-10-05T10:15:31.073Z,40.34
2022-10-05T10:18:13.092Z,40.34
2022-10-05T10:20:48.572Z,39.92
2022-10-05T10:24:00.492Z,38.99
2022-10-05T10:26:39.423Z,38.84
2022-10-05T10:29:48.633Z,40.27
2022-10-05T10:32:27.599Z,40.55
2022-10-05T10:38:17.431Z,38.81
2022-10-05T10:41:02.400Z,40.09
2022-10-05T10:43:43.871Z,40.15
2022-10-05T10:46:34.828Z,41.75
2022-10-05T10:49:28.354Z,42.87
2022-10-05T10:52:13.972Z,42.70
2022-10-05T10:55:08.249Z,42.98
2022-10-05T10:57:53.545Z,44.03
2022-10-05T11:00:28.447Z,44.45
2022-10-05T11:03:01.374Z,43.96
2022-10-05T11:05:28.140Z,43.90
2022-10-05T11:08:00.913Z,44.48
2022-10-05T11:10:30.365Z,44.71
2022-10-05T11:13:28.084Z,45.03
2022-10-05T11:16:23.961Z,45.13
2022-10-05T11:19:24.860Z,44.68
2022-10-05T11:22:16.511Z,45.39
2022-10-05T11:24:55.287Z,45.55
2022-10-05T11:27:42.629Z,46.43
2022-10-05T11:30:47.446Z,47.30
2022-10-05T11:33:54.787Z,48.00
2022-10-05T11:36:46.480Z,47.92
2022-10-05T11:39:43.186Z,48.57
2022-10-05T11:42:25.024Z,48.99
2022-10-05T11:45:11.901Z,49.58
2022-10-05T11:48:07.388Z,49.85
2022-10-05T11:50:59.069Z,50.40
2022-10-05T11:53:41.413Z,50.43
2022-10-05T11:56:23.418Z,50.56
2022-10-05T11:58:58.592Z,50.83
2022-10-05T12:01:32.317Z,51.42
2022-10-05T12:04:14.083Z,52.15
2022-10-05T12:07:17.931Z,52.58
2022-10-05T12:10:17.382Z,52.04
2022-10-05T12:13:19.119Z,52.58
2022-10-05T12:15:55.053Z,53.11
2022-10-05T12:18:30.460Z,53.37
2022-10-05T12:21:18.299Z,52.50
2022-10-05T12:23:55.371Z,52.82
2022-10-05T12:26:31.795Z,53.28
2022-10-05T12:29:03.510Z,53.37
2022-10-05T12:32:03.290Z,53.93
2022-10-05T12:34:41.976Z,52.62
2022-10-05T12:37:36.613Z,52.48
2022-10-05T12:40:13.458Z,52.81
2022-10-05T12:42:56.797Z,51.67
2022-10-05T12:45:33.071Z,51.06
2022-10-05T12:48:33.623Z,51.58
2022-10-05T12:51:09.111Z,53.98
2022-10-05T12:54:17.457Z,51.94
2022-10-05T12:56:44.757Z,52.08
2022-10-05T12:59:20.306Z,51.49
2022-10-05T13:02:19.060Z,52.08
2022-10-05T13:04:58.502Z,52.09
2022-10-05T13:07:35.482Z,52.04
2022-10-05T13:10:53.397Z,52.19
2022-10-05T13:13:53.013Z,52.96
2022-10-05T13:16:29.124Z,53.61
2022-10-05T13:19:09.092Z,53.01
2022-10-05T13:22:03.769Z,52.49
2022-10-05T13:24:33.776Z,53.56
2022-10-05T13:27:23.854Z,54.18
2022-10-05T13:30:16.638Z,53.76
2022-10-05T13:32:56.047Z,53.89
2022-10-05T13:35:41.726Z,54.56
2022-10-05T13:38:26.922Z,54.03
2022-10-05T13:41:14.426Z,53.63
2022-10-05T13:43:50.632Z,54.08
2022-10-05T13:46:30.153Z,54.39
2022-10-05T13:49:39.255Z,54.87
2022-10-05T13:52:08.912Z,55.59
2022-10-05T13:55:12.329Z,56.01
2022-10-05T13:57:51.769Z,55.96
2022-10-05T14:00:26.624Z,56.93
2022-10-05T14:02:56.827Z,57.19
2022-10-05T14:05:28.754Z,57.38
2022-10-05T14:07:55.414Z,57.68
2022-10-05T14:10:38.714Z,57.63
2022-10-05T14:13:29.211Z,58.08
2022-10-05T14:16:13.985Z,58.09
2022-10-05T14:18:56.727Z,58.61
2022-10-05T14:21:30.713Z,58.71
2022-10-05T14:24:49.701Z,58.87
2022-10-05T14:27:20.969Z,59.29
2022-10-05T14:30:14.034Z,59.53
2022-10-05T14:33:03.941Z,59.58
2022-10-05T14:35:45.576Z,60.36
2022-10-05T14:38:29.911Z,60.52
2022-10-05T14:41:27.399Z,60.54
2022-10-05T14:43:59.016Z,61.15
2022-10-05T14:46:29.477Z,61.27
2022-10-05T14:49:12.224Z,61.57
2022-10-05T14:51:42.198Z,62.41
2022-10-05T14:54:27.782Z,62.68
2022-10-05T14:57:03.289Z,63.33
2022-10-05T14:59:46.894Z,63.80
2022-10-05T15:02:48.090Z,64.72
2022-10-05T15:05:24.739Z,65.53
2022-10-05T15:07:57.296Z,66.13
2022-10-05T15:10:29.520Z,68.69
2022-10-05T15:13:08.047Z,71.59
2022-10-05T15:15:44.198Z,76.00
2022-10-05T15:18:11.711Z,74.30
2022-10-05T15:20:57.307Z,76.76
2022-10-05T15:23:49.863Z,77.38
2022-10-05T15:26:36.302Z,75.65
2022-10-05T15:29:36.263Z,77.43
2022-10-05T15:32:14.967Z,79.32
2022-10-05T15:35:10.870Z,80.20
2022-10-05T15:37:44.835Z,82.65
2022-10-05T15:40:29.114Z,84.19
2022-10-05T15:43:03.182Z,82.52
2022-10-05T15:45:37.638Z,79.10
2022-10-05T15:48:49.926Z,76.90
2022-10-05T15:51:35.498Z,77.60
2022-10-05T15:54:23.821Z,77.28
2022-10-05T15:57:10.906Z,79.43
2022-10-05T15:59:46.738Z,78.39
2022-10-05T16:02:24.796Z,79.82
2022-10-05T16:05:47.991Z,80.17
2022-10-05T16:08:54.292Z,83.11
2022-10-05T16:11:36.630Z,83.82
2022-10-05T16:14:28.141Z,82.93
2022-10-05T16:17:28.940Z,81.84
2022-10-05T16:20:03.152Z,83.50
2022-10-05T16:22:43.463Z,83.87
2022-10-05T16:25:19.395Z,82.03
2022-10-05T16:27:52.655Z,82.81
2022-10-05T16:30:23.159Z,83.85
2022-10-05T16:33:18.567Z,82.33
2022-10-05T16:36:04.203Z,81.44
2022-10-05T16:38:41.227Z,81.54
2022-10-05T16:41:09.254Z,81.93
2022-10-05T16:43:49.577Z,81.93
2022-10-05T16:46:43.376Z,81.96
2022-10-05T16:49:24.193Z,82.94
2022-10-05T16:52:00.108Z,82.87
2022-10-05T16:54:47.492Z,84.32
2022-10-05T16:57:21.012Z,84.65
2022-10-05T17:00:15.048Z,85.12
2022-10-05T17:03:06.242Z,86.42
2022-10-05T17:05:41.144Z,87.17
2022-10-05T17:08:56.649Z,88.00
2022-10-05T17:12:04.955Z,89.18
2022-10-05T17:14:40.097Z,89.50
2022-10-05T17:17:24.861Z,90.59
2022-10-05T17:20:17.537Z,90.42
2022-10-05T17:23:18.444Z,90.90
2022-10-05T17:25:54.357Z,90.07
2022-10-05T17:28:37.017Z,89.90
2022-10-05T17:31:18.849Z,89.65
2022-10-05T17:34:01.060Z,89.92
2022-10-05T17:36:47.563Z,89.44
2022-10-05T17:39:23.738Z,91.06
2022-10-05T17:41:51.193Z,91.19
2022-10-05T17:44:24.855Z,89.72
2022-10-05T17:46:59.582Z,90.50
2022-10-05T17:49:39.656Z,91.40
2022-10-05T17:52:44.119Z,91.75
2022-10-05T17:55:27.466Z,92.13
2022-10-05T17:57:58.817Z,92.02
2022-10-05T18:00:25.610Z,92.01
2022-10-05T18:02:56.545Z,92.75
2022-10-05T18:05:27.903Z,92.79
2022-10-05T18:08:27.836Z,93.24
2022-10-05T18:11:33.505Z,93.91
2022-10-05T18:14:26.423Z,94.05
2022-10-05T18:16:57.028Z,93.78
2022-10-05T18:19:24.509Z,93.96
2022-10-05T18:22:28.214Z,93.94
2022-10-05T18:25:27.651Z,93.68
2022-10-05T18:28:19.361Z,94.10
2022-10-05T18:31:32.668Z,93.63
2022-10-05T18:34:41.386Z,93.85
2022-10-05T18:37:43.204Z,95.00
2022-10-05T18:40:44.074Z,94.96
2022-10-05T18:43:26.651Z,95.10
2022-10-05T18:45:59.339Z,95.59
2022-10-05T18:48:48.471Z,96.09
2022-10-05T18:51:36.853Z,96.46
2022-10-05T18:54:18.169Z,96.99
2022-10-05T18:56:51.276Z,97.30
2022-10-05T18:59:27.884Z,98.13
2022-10-05T19:02:19.051Z,98.33
2022-10-05T19:05:35.778Z,97.93
2022-10-05T19:08:23.657Z,98.74
2022-10-05T19:11:01.003Z,97.88
2022-10-05T19:14:26.437Z,97.63
2022-10-05T19:17:06.118Z,97.81
2022-10-05T19:19:45.805Z,97.29
2022-10-05T19:22:20.223Z,97.09
2022-10-05T19:24:59.069Z,96.84
2022-10-05T19:27:34.964Z,96.94
2022-10-05T19:30:20.193Z,96.09
2022-10-05T19:32:50.123Z,96.18
2022-10-05T19:35:49.033Z,96.18
2022-10-05T19:38:41.362Z,96.79
2022-10-05T19:41:36.693Z,96.57
2022-10-05T19:44:17.903Z,98.48
2022-10-05T19:46:53.309Z,97.82
2022-10-05T19:49:46.359Z,98.42
2022-10-05T19:52:22.379Z,97.68
2022-10-05T19:55:21.113Z,97.12
2022-10-05T19:57:53.729Z,96.47
2022-10-05T20:00:26.705Z,96.46
2022-10-05T20:03:19.621Z,95.65
2022-10-05T20:05:46.978Z,95.94
2022-10-05T20:08:19.171Z,95.86
2022-10-05T20:11:10.683Z,95.76
2022-10-05T20:13:40.066Z,95.41
2022-10-05T20:16:28.488Z,96.21
2022-10-05T20:19:13.986Z,96.82
2022-10-05T20:21:59.867Z,96.01
2022-10-05T20:24:28.619Z,95.25
2022-10-05T20:27:06.485Z,95.66
2022-10-05T20:29:36.301Z,95.69
2022-10-05T20:32:10.076Z,95.67
2022-10-05T20:34:41.557Z,96.15
2022-10-05T20:37:10.614Z,96.28
2022-10-05T20:39:38.374Z,96.03
2022-10-05T20:42:05.316Z,95.75
2022-10-05T20:44:32.112Z,95.74
2022-10-05T20:47:01.255Z,95.92
2022-10-05T20:49:31.095Z,96.32
2022-10-05T20:51:58.966Z,95.40
2022-10-05T20:54:26.944Z,96.28
2022-10-05T20:56:55.784Z,96.55
2022-10-05T20:59:24.195Z,96.99
2022-10-05T21:01:51.509Z,97.25
2022-10-05T21:04:40.327Z,97.75
2022-10-05T21:07:08.348Z,97.26
2022-10-05T21:09:38.002Z,97.71
2022-10-05T21:12:04.991Z,97.78
2022-10-05T21:14:34.392Z,97.51
2022-10-05T21:17:02.133Z,97.27
2022-10-05T21:19:29.596Z,97.97
2022-10-05T21:21:59.807Z,96.91
2022-10-05T21:24:26.588Z,96.68
2022-10-05T21:26:57.690Z,97.32
2022-10-05T21:29:24.593Z,96.81
2022-10-05T21:31:51.396Z,96.98
2022-10-05T21:34:18.270Z,96.43
2022-10-05T21:36:45.022Z,97.41
2022-10-05T21:39:11.735Z,97.11
2022-10-05T21:41:38.525Z,96.78
2022-10-05T21:44:06.801Z,96.83
2022-10-05T21:46:36.234Z,97.09
2022-10-05T21:49:03.022Z,97.60
2022-10-05T21:51:29.928Z,97.57
2022-10-05T21:54:06.858Z,97.19
2022-10-05T21:56:37.759Z,97.64
2022-10-05T21:59:07.732Z,97.70
2022-10-05T22:01:36.010Z,97.88
2022-10-05T22:04:04.416Z,97.57
2022-10-05T22:06:32.127Z,97.37
2022-10-05T22:08:59.668Z,96.78
2022-10-05T22:11:29.024Z,96.54
2022-10-05T22:14:02.566Z,96.68
2022-10-05T22:16:38.214Z,96.35
2022-10-05T22:19:10.173Z,95.19
2022-10-05T22:21:41.517Z,94.22
2022-10-05T22:24:09.984Z,93.85
2022-10-05T22:26:36.751Z,94.68
2022-10-05T22:29:03.939Z,95.10
2022-10-05T22:31:30.806Z,95.54
2022-10-05T22:33:57.573Z,95.46
2022-10-05T22:36:24.566Z,95.21
2022-10-05T22:38:51.398Z,96.46
2022-10-05T22:41:18.453Z,95.89
2022-10-05T22:43:50.083Z,96.67
2022-10-05T22:46:17.466Z,96.35
2022-10-05T22:48:44.426Z,96.27
2022-10-05T22:51:11.220Z,94.94
2022-10-05T22:53:38.163Z,95.69
2022-10-05T22:56:07.157Z,95.03
2022-10-05T22:58:33.983Z,95.57
2022-10-05T23:01:03.730Z,95.44
2022-10-05T23:03:31.718Z,95.17
2022-10-05T23:06:03.171Z,94.42
2022-10-05T23:08:31.873Z,95.49
2022-10-05T23:11:06.554Z,92.42
2022-10-05T23:13:33.655Z,90.45
2022-10-05T23:16:27.892Z,90.77
2022-10-05T23:18:55.899Z,89.50
2022-10-05T23:21:24.153Z,89.59
2022-10-05T23:23:51.391Z,89.19
2022-10-05T23:26:20.776Z,90.19
2022-10-05T23:28:48.177Z,89.78
2022-10-05T23:31:17.531Z,91.15
2022-10-05T23:33:44.503Z,91.42
2022-10-05T23:36:17.188Z,91.42
2022-10-05T23:38:43.959Z,91.33
2022-10-05T23:41:11.835Z,91.75
2022-10-05T23:43:39.117Z,91.96
2022-10-05T23:46:07.227Z,91.24
2022-10-05T23:48:34.575Z,90.97
2022-10-05T23:51:01.402Z,91.68
2022-10-05T23:53:28.075Z,91.89
2022-10-05T23:55:55.556Z,92.37
2022-10-05T23:58:23.446Z,91.90
